sensor_id;sensor_type;location;lat;lon;timestamp;temperature;humidity
10468;DHT22;5281;48.878;9.394;2024-03-08T00:02:35;4.70;99.90
10468;DHT22;5281;48.878;9.394;2024-03-08T00:05:02;4.70;99.90
10468;DHT22;5281;48.878;9.394;2024-03-08T00:07:28;4.70;99.90
10468;DHT22;5281;48.878;9.394;2024-03-08T00:09:55;4.70;99.90
10468;DHT22;5281;48.878;9.394;2024-03-08T00:12:23;4.70;99.90
10468;DHT22;5281;48.878;9.394;2024-03-08T00:14:51;4.70;99.90
10468;DHT22;5281;48.878;9.394;2024-03-08T00:17:17;4.70;99.90
10468;DHT22;5281;48.878;9.394;2024-03-08T00:19:44;4.70;99.90
10468;DHT22;5281;48.878;9.394;2024-03-08T00:22:11;4.70;99.90
10468;DHT22;5281;48.878;9.394;2024-03-08T00:24:37;4.60;99.90
10468;DHT22;5281;48.878;9.394;2024-03-08T00:27:04;4.60;99.90
10468;DHT22;5281;48.878;9.394;2024-03-08T00:29:32;4.60;99.90
10468;DHT22;5281;48.878;9.394;2024-03-08T00:31:59;4.60;99.90
10468;DHT22;5281;48.878;9.394;2024-03-08T00:34:26;4.50;99.90
10468;DHT22;5281;48.878;9.394;2024-03-08T00:36:53;4.50;99.90
10468;DHT22;5281;48.878;9.394;2024-03-08T00:39:19;4.50;99.90
10468;DHT22;5281;48.878;9.394;2024-03-08T00:41:46;4.50;99.90
10468;DHT22;5281;48.878;9.394;2024-03-08T00:44:13;4.50;99.90
10468;DHT22;5281;48.878;9.394;2024-03-08T00:46:41;4.50;99.90
10468;DHT22;5281;48.878;9.394;2024-03-08T00:49:09;4.50;99.90
10468;DHT22;5281;48.878;9.394;2024-03-08T00:51:35;4.50;99.90
10468;DHT22;5281;48.878;9.394;2024-03-08T00:54:02;4.40;99.90
10468;DHT22;5281;48.878;9.394;2024-03-08T00:56:29;4.40;99.90
10468;DHT22;5281;48.878;9.394;2024-03-08T00:58:56;4.40;99.90
10468;DHT22;5281;48.878;9.394;2024-03-08T01:01:22;4.40;99.90
10468;DHT22;5281;48.878;9.394;2024-03-08T01:03:51;4.40;99.90
10468;DHT22;5281;48.878;9.394;2024-03-08T01:06:18;4.30;99.90
10468;DHT22;5281;48.878;9.394;2024-03-08T01:08:45;4.30;99.90
10468;DHT22;5281;48.878;9.394;2024-03-08T01:11:13;4.30;99.90
10468;DHT22;5281;48.878;9.394;2024-03-08T01:13:39;4.30;99.90
10468;DHT22;5281;48.878;9.394;2024-03-08T01:16:06;4.30;99.90
10468;DHT22;5281;48.878;9.394;2024-03-08T01:18:33;4.20;99.90
10468;DHT22;5281;48.878;9.394;2024-03-08T01:21:01;4.30;99.90
10468;DHT22;5281;48.878;9.394;2024-03-08T01:23:28;4.30;99.90
10468;DHT22;5281;48.878;9.394;2024-03-08T01:25:55;4.20;99.90
10468;DHT22;5281;48.878;9.394;2024-03-08T01:28:23;4.10;99.90
10468;DHT22;5281;48.878;9.394;2024-03-08T01:30:50;4.10;99.90
10468;DHT22;5281;48.878;9.394;2024-03-08T01:33:21;4.10;99.90
10468;DHT22;5281;48.878;9.394;2024-03-08T01:35:48;4.10;99.90
10468;DHT22;5281;48.878;9.394;2024-03-08T01:38:16;4.10;99.90
10468;DHT22;5281;48.878;9.394;2024-03-08T01:40:43;4.00;99.90
10468;DHT22;5281;48.878;9.394;2024-03-08T01:43:18;4.00;99.90
10468;DHT22;5281;48.878;9.394;2024-03-08T01:45:44;4.00;99.90
10468;DHT22;5281;48.878;9.394;2024-03-08T01:48:11;3.90;99.90
10468;DHT22;5281;48.878;9.394;2024-03-08T01:50:38;3.90;99.90
10468;DHT22;5281;48.878;9.394;2024-03-08T01:53:06;3.90;99.90
10468;DHT22;5281;48.878;9.394;2024-03-08T01:55:37;3.90;99.90
10468;DHT22;5281;48.878;9.394;2024-03-08T01:58:05;4.00;99.90
10468;DHT22;5281;48.878;9.394;2024-03-08T02:00:32;4.00;99.90
10468;DHT22;5281;48.878;9.394;2024-03-08T02:02:59;3.90;99.90
10468;DHT22;5281;48.878;9.394;2024-03-08T02:05:26;3.90;99.90
10468;DHT22;5281;48.878;9.394;2024-03-08T02:07:53;3.80;99.90
10468;DHT22;5281;48.878;9.394;2024-03-08T02:10:20;3.80;99.90
10468;DHT22;5281;48.878;9.394;2024-03-08T02:12:49;3.80;99.90
10468;DHT22;5281;48.878;9.394;2024-03-08T02:15:15;3.80;99.90
10468;DHT22;5281;48.878;9.394;2024-03-08T02:17:42;3.80;99.90
10468;DHT22;5281;48.878;9.394;2024-03-08T02:20:09;3.80;99.90
10468;DHT22;5281;48.878;9.394;2024-03-08T02:22:40;3.70;99.90
10468;DHT22;5281;48.878;9.394;2024-03-08T02:25:08;3.70;99.90
10468;DHT22;5281;48.878;9.394;2024-03-08T02:27:35;3.70;99.90
10468;DHT22;5281;48.878;9.394;2024-03-08T02:30:01;3.70;99.90
10468;DHT22;5281;48.878;9.394;2024-03-08T02:32:28;3.60;99.90
10468;DHT22;5281;48.878;9.394;2024-03-08T02:34:56;3.60;99.90
10468;DHT22;5281;48.878;9.394;2024-03-08T02:37:25;3.60;99.90
10468;DHT22;5281;48.878;9.394;2024-03-08T02:39:54;3.50;99.90
10468;DHT22;5281;48.878;9.394;2024-03-08T02:42:21;3.50;99.90
10468;DHT22;5281;48.878;9.394;2024-03-08T02:44:48;3.50;99.90
10468;DHT22;5281;48.878;9.394;2024-03-08T02:47:15;3.40;99.90
10468;DHT22;5281;48.878;9.394;2024-03-08T02:49:41;3.30;99.90
10468;DHT22;5281;48.878;9.394;2024-03-08T02:52:08;3.30;99.90
10468;DHT22;5281;48.878;9.394;2024-03-08T02:54:34;3.30;99.90
10468;DHT22;5281;48.878;9.394;2024-03-08T02:57:03;3.30;99.90
10468;DHT22;5281;48.878;9.394;2024-03-08T02:59:32;3.30;99.90
10468;DHT22;5281;48.878;9.394;2024-03-08T03:01:59;3.40;99.90
10468;DHT22;5281;48.878;9.394;2024-03-08T03:04:26;3.20;99.90
10468;DHT22;5281;48.878;9.394;2024-03-08T03:06:53;3.20;99.90
10468;DHT22;5281;48.878;9.394;2024-03-08T03:09:20;3.30;99.90
10468;DHT22;5281;48.878;9.394;2024-03-08T03:11:53;3.30;99.90
10468;DHT22;5281;48.878;9.394;2024-03-08T03:14:21;3.30;99.90
10468;DHT22;5281;48.878;9.394;2024-03-08T03:16:48;3.40;99.90
10468;DHT22;5281;48.878;9.394;2024-03-08T03:19:15;3.30;99.90
10468;DHT22;5281;48.878;9.394;2024-03-08T03:21:42;3.40;99.90
10468;DHT22;5281;48.878;9.394;2024-03-08T03:24:09;3.40;99.90
10468;DHT22;5281;48.878;9.394;2024-03-08T03:26:36;3.40;99.90
10468;DHT22;5281;48.878;9.394;2024-03-08T03:29:04;3.40;99.90
10468;DHT22;5281;48.878;9.394;2024-03-08T03:31:32;3.40;99.90
10468;DHT22;5281;48.878;9.394;2024-03-08T03:33:59;3.40;99.90
10468;DHT22;5281;48.878;9.394;2024-03-08T03:36:28;3.40;99.90
10468;DHT22;5281;48.878;9.394;2024-03-08T03:38:55;3.30;99.90
10468;DHT22;5281;48.878;9.394;2024-03-08T03:41:36;3.20;99.90
10468;DHT22;5281;48.878;9.394;2024-03-08T03:44:04;3.20;99.90
10468;DHT22;5281;48.878;9.394;2024-03-08T03:46:30;3.20;99.90
10468;DHT22;5281;48.878;9.394;2024-03-08T03:51:26;3.20;99.90
10468;DHT22;5281;48.878;9.394;2024-03-08T03:53:54;3.20;99.90
10468;DHT22;5281;48.878;9.394;2024-03-08T03:56:25;3.20;99.90
10468;DHT22;5281;48.878;9.394;2024-03-08T03:58:52;3.20;99.90
10468;DHT22;5281;48.878;9.394;2024-03-08T04:01:18;3.30;99.90
10468;DHT22;5281;48.878;9.394;2024-03-08T04:03:45;3.30;99.90
10468;DHT22;5281;48.878;9.394;2024-03-08T04:06:12;3.30;99.90
10468;DHT22;5281;48.878;9.394;2024-03-08T04:08:41;3.30;99.90
10468;DHT22;5281;48.878;9.394;2024-03-08T04:11:08;3.30;99.90
10468;DHT22;5281;48.878;9.394;2024-03-08T04:13:34;3.30;99.90
10468;DHT22;5281;48.878;9.394;2024-03-08T04:16:02;3.30;99.90
10468;DHT22;5281;48.878;9.394;2024-03-08T04:18:28;3.30;99.90
10468;DHT22;5281;48.878;9.394;2024-03-08T04:20:55;3.30;99.90
10468;DHT22;5281;48.878;9.394;2024-03-08T04:23:22;3.30;99.90
10468;DHT22;5281;48.878;9.394;2024-03-08T04:25:50;3.20;99.90
10468;DHT22;5281;48.878;9.394;2024-03-08T04:28:16;3.30;99.90
10468;DHT22;5281;48.878;9.394;2024-03-08T04:30:43;3.20;99.90
10468;DHT22;5281;48.878;9.394;2024-03-08T04:33:11;3.30;99.90
10468;DHT22;5281;48.878;9.394;2024-03-08T04:35:43;3.30;99.90
10468;DHT22;5281;48.878;9.394;2024-03-08T04:38:11;3.30;99.90
10468;DHT22;5281;48.878;9.394;2024-03-08T04:40:38;3.30;99.90
10468;DHT22;5281;48.878;9.394;2024-03-08T04:43:06;3.30;99.90
10468;DHT22;5281;48.878;9.394;2024-03-08T04:45:34;3.30;99.90
10468;DHT22;5281;48.878;9.394;2024-03-08T04:48:00;3.30;99.90
10468;DHT22;5281;48.878;9.394;2024-03-08T04:50:27;3.20;99.90
10468;DHT22;5281;48.878;9.394;2024-03-08T04:52:54;3.20;99.90
10468;DHT22;5281;48.878;9.394;2024-03-08T04:55:21;3.10;99.90
10468;DHT22;5281;48.878;9.394;2024-03-08T04:57:48;3.20;99.90
10468;DHT22;5281;48.878;9.394;2024-03-08T05:00:17;3.10;99.90
10468;DHT22;5281;48.878;9.394;2024-03-08T05:02:44;3.10;99.90
10468;DHT22;5281;48.878;9.394;2024-03-08T05:05:11;3.10;99.90
10468;DHT22;5281;48.878;9.394;2024-03-08T05:07:38;3.10;99.90
10468;DHT22;5281;48.878;9.394;2024-03-08T05:10:05;3.00;99.90
10468;DHT22;5281;48.878;9.394;2024-03-08T05:12:32;2.90;99.90
10468;DHT22;5281;48.878;9.394;2024-03-08T05:14:59;3.00;99.90
10468;DHT22;5281;48.878;9.394;2024-03-08T05:17:27;3.00;99.90
10468;DHT22;5281;48.878;9.394;2024-03-08T05:19:55;3.00;99.90
10468;DHT22;5281;48.878;9.394;2024-03-08T05:22:22;3.00;99.90
10468;DHT22;5281;48.878;9.394;2024-03-08T05:24:49;3.00;99.90
10468;DHT22;5281;48.878;9.394;2024-03-08T05:27:15;3.00;99.90
10468;DHT22;5281;48.878;9.394;2024-03-08T05:29:42;2.90;99.90
10468;DHT22;5281;48.878;9.394;2024-03-08T05:32:09;2.90;99.90
10468;DHT22;5281;48.878;9.394;2024-03-08T05:34:38;2.80;99.90
10468;DHT22;5281;48.878;9.394;2024-03-08T05:37:05;2.80;99.90
10468;DHT22;5281;48.878;9.394;2024-03-08T05:39:32;2.80;99.90
10468;DHT22;5281;48.878;9.394;2024-03-08T05:41:59;2.80;99.90
10468;DHT22;5281;48.878;9.394;2024-03-08T05:44:26;2.90;99.90
10468;DHT22;5281;48.878;9.394;2024-03-08T05:46:54;2.90;99.90
10468;DHT22;5281;48.878;9.394;2024-03-08T05:49:21;2.90;99.90
10468;DHT22;5281;48.878;9.394;2024-03-08T05:51:49;3.00;99.90
10468;DHT22;5281;48.878;9.394;2024-03-08T05:54:16;3.00;99.90
10468;DHT22;5281;48.878;9.394;2024-03-08T05:56:43;3.00;99.90
10468;DHT22;5281;48.878;9.394;2024-03-08T05:59:10;3.00;99.90
10468;DHT22;5281;48.878;9.394;2024-03-08T06:01:37;3.10;99.90
10468;DHT22;5281;48.878;9.394;2024-03-08T06:04:06;3.20;99.90
10468;DHT22;5281;48.878;9.394;2024-03-08T06:06:33;3.10;99.90
10468;DHT22;5281;48.878;9.394;2024-03-08T06:09:01;3.00;99.90
10468;DHT22;5281;48.878;9.394;2024-03-08T06:11:34;3.20;99.90
10468;DHT22;5281;48.878;9.394;2024-03-08T06:14:02;3.20;99.90
10468;DHT22;5281;48.878;9.394;2024-03-08T06:16:29;3.30;99.90
10468;DHT22;5281;48.878;9.394;2024-03-08T06:18:56;3.40;99.90
10468;DHT22;5281;48.878;9.394;2024-03-08T06:21:23;3.50;99.90
10468;DHT22;5281;48.878;9.394;2024-03-08T06:23:52;3.70;99.90
10468;DHT22;5281;48.878;9.394;2024-03-08T06:26:21;3.80;99.90
10468;DHT22;5281;48.878;9.394;2024-03-08T06:28:48;3.90;99.90
10468;DHT22;5281;48.878;9.394;2024-03-08T06:31:16;4.00;99.90
10468;DHT22;5281;48.878;9.394;2024-03-08T06:33:43;4.10;99.90
10468;DHT22;5281;48.878;9.394;2024-03-08T06:36:10;4.10;99.90
10468;DHT22;5281;48.878;9.394;2024-03-08T06:38:37;4.20;99.90
10468;DHT22;5281;48.878;9.394;2024-03-08T06:41:07;4.30;99.90
10468;DHT22;5281;48.878;9.394;2024-03-08T06:43:35;4.60;99.90
10468;DHT22;5281;48.878;9.394;2024-03-08T06:46:02;5.00;99.90
10468;DHT22;5281;48.878;9.394;2024-03-08T06:48:29;5.30;99.90
10468;DHT22;5281;48.878;9.394;2024-03-08T06:50:57;5.50;99.90
10468;DHT22;5281;48.878;9.394;2024-03-08T06:53:24;5.70;99.90
10468;DHT22;5281;48.878;9.394;2024-03-08T06:55:50;5.90;99.90
10468;DHT22;5281;48.878;9.394;2024-03-08T06:58:17;6.10;99.90
10468;DHT22;5281;48.878;9.394;2024-03-08T07:00:46;6.30;99.90
10468;DHT22;5281;48.878;9.394;2024-03-08T07:03:12;6.50;99.90
10468;DHT22;5281;48.878;9.394;2024-03-08T07:05:42;6.70;99.90
10468;DHT22;5281;48.878;9.394;2024-03-08T07:08:09;6.80;99.90
10468;DHT22;5281;48.878;9.394;2024-03-08T07:10:37;7.00;99.90
10468;DHT22;5281;48.878;9.394;2024-03-08T07:13:07;7.10;99.90
10468;DHT22;5281;48.878;9.394;2024-03-08T07:15:33;7.30;99.90
10468;DHT22;5281;48.878;9.394;2024-03-08T07:18:02;7.40;99.90
10468;DHT22;5281;48.878;9.394;2024-03-08T07:20:29;7.40;99.90
10468;DHT22;5281;48.878;9.394;2024-03-08T07:22:56;7.40;99.90
10468;DHT22;5281;48.878;9.394;2024-03-08T07:25:22;7.40;99.90
10468;DHT22;5281;48.878;9.394;2024-03-08T07:27:50;7.60;99.90
10468;DHT22;5281;48.878;9.394;2024-03-08T07:30:18;7.70;99.90
10468;DHT22;5281;48.878;9.394;2024-03-08T07:32:58;7.80;99.90
10468;DHT22;5281;48.878;9.394;2024-03-08T07:35:28;7.80;99.90
10468;DHT22;5281;48.878;9.394;2024-03-08T07:37:56;7.80;99.90
10468;DHT22;5281;48.878;9.394;2024-03-08T07:40:23;7.80;99.90
10468;DHT22;5281;48.878;9.394;2024-03-08T07:42:50;7.60;99.90
10468;DHT22;5281;48.878;9.394;2024-03-08T07:45:16;7.40;99.90
10468;DHT22;5281;48.878;9.394;2024-03-08T07:47:43;7.40;99.90
10468;DHT22;5281;48.878;9.394;2024-03-08T07:50:10;7.20;99.90
10468;DHT22;5281;48.878;9.394;2024-03-08T07:52:42;7.30;99.90
10468;DHT22;5281;48.878;9.394;2024-03-08T07:55:09;7.30;99.90
10468;DHT22;5281;48.878;9.394;2024-03-08T07:57:36;7.40;99.90
10468;DHT22;5281;48.878;9.394;2024-03-08T08:00:05;7.50;99.90
10468;DHT22;5281;48.878;9.394;2024-03-08T08:02:33;7.60;99.90
10468;DHT22;5281;48.878;9.394;2024-03-08T08:05:00;7.70;99.90
10468;DHT22;5281;48.878;9.394;2024-03-08T08:07:27;7.70;99.90
10468;DHT22;5281;48.878;9.394;2024-03-08T08:09:55;7.70;99.90
10468;DHT22;5281;48.878;9.394;2024-03-08T08:12:22;7.50;99.90
10468;DHT22;5281;48.878;9.394;2024-03-08T08:14:49;7.30;99.90
10468;DHT22;5281;48.878;9.394;2024-03-08T08:17:15;7.20;99.90
10468;DHT22;5281;48.878;9.394;2024-03-08T08:19:42;7.10;99.90
10468;DHT22;5281;48.878;9.394;2024-03-08T08:22:09;7.20;99.90
10468;DHT22;5281;48.878;9.394;2024-03-08T08:24:36;7.10;99.90
10468;DHT22;5281;48.878;9.394;2024-03-08T08:27:04;7.20;99.90
10468;DHT22;5281;48.878;9.394;2024-03-08T08:29:30;7.20;99.90
10468;DHT22;5281;48.878;9.394;2024-03-08T08:31:58;7.30;99.90
10468;DHT22;5281;48.878;9.394;2024-03-08T08:34:25;7.30;99.90
10468;DHT22;5281;48.878;9.394;2024-03-08T08:36:52;7.40;99.90
10468;DHT22;5281;48.878;9.394;2024-03-08T08:39:20;7.50;99.90
10468;DHT22;5281;48.878;9.394;2024-03-08T08:41:48;7.60;99.90
10468;DHT22;5281;48.878;9.394;2024-03-08T08:44:16;7.70;99.90
10468;DHT22;5281;48.878;9.394;2024-03-08T08:46:42;7.80;99.90
10468;DHT22;5281;48.878;9.394;2024-03-08T08:49:09;7.90;99.90
10468;DHT22;5281;48.878;9.394;2024-03-08T08:51:39;7.90;99.90
10468;DHT22;5281;48.878;9.394;2024-03-08T08:54:06;8.10;99.90
10468;DHT22;5281;48.878;9.394;2024-03-08T08:56:33;8.20;99.90
10468;DHT22;5281;48.878;9.394;2024-03-08T08:59:00;8.20;99.90
10468;DHT22;5281;48.878;9.394;2024-03-08T09:01:28;8.20;99.90
10468;DHT22;5281;48.878;9.394;2024-03-08T09:03:54;8.20;99.90
10468;DHT22;5281;48.878;9.394;2024-03-08T09:06:21;8.40;99.90
10468;DHT22;5281;48.878;9.394;2024-03-08T09:08:48;8.60;99.90
10468;DHT22;5281;48.878;9.394;2024-03-08T09:11:14;8.80;99.90
10468;DHT22;5281;48.878;9.394;2024-03-08T09:13:44;8.70;99.90
10468;DHT22;5281;48.878;9.394;2024-03-08T09:16:11;8.60;99.90
10468;DHT22;5281;48.878;9.394;2024-03-08T09:18:39;8.50;99.90
10468;DHT22;5281;48.878;9.394;2024-03-08T09:21:07;8.60;99.90
10468;DHT22;5281;48.878;9.394;2024-03-08T09:23:35;8.70;99.90
10468;DHT22;5281;48.878;9.394;2024-03-08T09:26:02;8.90;99.90
10468;DHT22;5281;48.878;9.394;2024-03-08T09:28:29;9.00;99.90
10468;DHT22;5281;48.878;9.394;2024-03-08T09:30:56;9.10;99.90
10468;DHT22;5281;48.878;9.394;2024-03-08T09:33:24;9.20;99.90
10468;DHT22;5281;48.878;9.394;2024-03-08T09:35:52;8.90;99.90
10468;DHT22;5281;48.878;9.394;2024-03-08T09:38:20;8.80;99.90
10468;DHT22;5281;48.878;9.394;2024-03-08T09:40:47;8.90;99.90
10468;DHT22;5281;48.878;9.394;2024-03-08T09:43:14;9.10;99.90
10468;DHT22;5281;48.878;9.394;2024-03-08T09:45:40;9.40;99.90
10468;DHT22;5281;48.878;9.394;2024-03-08T09:48:10;9.60;99.90
10468;DHT22;5281;48.878;9.394;2024-03-08T09:50:39;9.80;99.90
10468;DHT22;5281;48.878;9.394;2024-03-08T09:53:08;9.90;99.90
10468;DHT22;5281;48.878;9.394;2024-03-08T09:55:35;10.00;99.90
10468;DHT22;5281;48.878;9.394;2024-03-08T09:58:05;10.10;99.90
10468;DHT22;5281;48.878;9.394;2024-03-08T10:01:14;10.30;99.90
10468;DHT22;5281;48.878;9.394;2024-03-08T10:03:40;10.10;99.90
10468;DHT22;5281;48.878;9.394;2024-03-08T10:06:07;9.70;99.90
10468;DHT22;5281;48.878;9.394;2024-03-08T10:08:36;9.70;99.90
10468;DHT22;5281;48.878;9.394;2024-03-08T10:11:03;9.60;99.90
10468;DHT22;5281;48.878;9.394;2024-03-08T10:13:30;9.80;99.90
10468;DHT22;5281;48.878;9.394;2024-03-08T10:15:58;10.20;99.90
10468;DHT22;5281;48.878;9.394;2024-03-08T10:18:24;10.10;99.90
10468;DHT22;5281;48.878;9.394;2024-03-08T10:21:10;10.10;99.90
10468;DHT22;5281;48.878;9.394;2024-03-08T10:23:39;10.10;99.90
10468;DHT22;5281;48.878;9.394;2024-03-08T10:26:11;10.10;99.90
10468;DHT22;5281;48.878;9.394;2024-03-08T10:28:40;10.10;99.90
10468;DHT22;5281;48.878;9.394;2024-03-08T10:31:07;10.30;99.90
10468;DHT22;5281;48.878;9.394;2024-03-08T10:33:34;10.70;99.90
10468;DHT22;5281;48.878;9.394;2024-03-08T10:36:04;10.90;99.90
10468;DHT22;5281;48.878;9.394;2024-03-08T10:38:32;10.70;99.90
10468;DHT22;5281;48.878;9.394;2024-03-08T10:41:01;10.70;99.90
10468;DHT22;5281;48.878;9.394;2024-03-08T10:43:32;10.70;99.90
10468;DHT22;5281;48.878;9.394;2024-03-08T10:46:13;11.00;99.90
10468;DHT22;5281;48.878;9.394;2024-03-08T10:48:44;11.50;99.90
10468;DHT22;5281;48.878;9.394;2024-03-08T10:51:12;12.00;99.90
10468;DHT22;5281;48.878;9.394;2024-03-08T10:53:39;12.30;99.90
10468;DHT22;5281;48.878;9.394;2024-03-08T10:56:08;12.50;99.90
10468;DHT22;5281;48.878;9.394;2024-03-08T10:58:36;12.90;99.90
10468;DHT22;5281;48.878;9.394;2024-03-08T11:01:03;13.20;99.90
10468;DHT22;5281;48.878;9.394;2024-03-08T11:03:44;13.00;99.90
10468;DHT22;5281;48.878;9.394;2024-03-08T11:06:15;12.40;99.90
10468;DHT22;5281;48.878;9.394;2024-03-08T11:08:42;12.10;99.90
10468;DHT22;5281;48.878;9.394;2024-03-08T11:11:29;12.10;99.90
10468;DHT22;5281;48.878;9.394;2024-03-08T11:14:00;12.10;99.90
10468;DHT22;5281;48.878;9.394;2024-03-08T11:16:45;11.90;99.90
10468;DHT22;5281;48.878;9.394;2024-03-08T11:19:26;11.90;99.90
10468;DHT22;5281;48.878;9.394;2024-03-08T11:21:59;11.80;99.90
10468;DHT22;5281;48.878;9.394;2024-03-08T11:24:25;11.80;99.90
10468;DHT22;5281;48.878;9.394;2024-03-08T11:26:57;11.80;99.90
10468;DHT22;5281;48.878;9.394;2024-03-08T11:29:35;11.70;99.90
10468;DHT22;5281;48.878;9.394;2024-03-08T11:32:07;11.60;99.90
10468;DHT22;5281;48.878;9.394;2024-03-08T11:34:34;11.30;99.90
10468;DHT22;5281;48.878;9.394;2024-03-08T11:37:00;11.20;99.90
10468;DHT22;5281;48.878;9.394;2024-03-08T11:39:27;11.00;99.90
10468;DHT22;5281;48.878;9.394;2024-03-08T11:41:56;10.90;99.90
10468;DHT22;5281;48.878;9.394;2024-03-08T11:44:27;10.70;99.90
10468;DHT22;5281;48.878;9.394;2024-03-08T11:46:54;10.60;99.90
10468;DHT22;5281;48.878;9.394;2024-03-08T11:49:21;10.80;99.90
10468;DHT22;5281;48.878;9.394;2024-03-08T11:51:51;10.70;99.90
10468;DHT22;5281;48.878;9.394;2024-03-08T11:54:19;10.60;99.90
10468;DHT22;5281;48.878;9.394;2024-03-08T11:56:45;10.70;99.90
10468;DHT22;5281;48.878;9.394;2024-03-08T11:59:14;10.70;99.90
10468;DHT22;5281;48.878;9.394;2024-03-08T12:01:43;10.60;99.90
10468;DHT22;5281;48.878;9.394;2024-03-08T12:04:12;10.80;99.90
10468;DHT22;5281;48.878;9.394;2024-03-08T12:06:39;10.90;99.90
10468;DHT22;5281;48.878;9.394;2024-03-08T12:09:08;11.00;99.90
10468;DHT22;5281;48.878;9.394;2024-03-08T12:11:35;11.30;99.90
10468;DHT22;5281;48.878;9.394;2024-03-08T12:14:02;11.30;99.90
10468;DHT22;5281;48.878;9.394;2024-03-08T12:16:30;11.40;99.90
10468;DHT22;5281;48.878;9.394;2024-03-08T12:18:57;11.60;99.90
10468;DHT22;5281;48.878;9.394;2024-03-08T12:21:26;11.70;99.90
10468;DHT22;5281;48.878;9.394;2024-03-08T12:24:05;11.50;99.90
10468;DHT22;5281;48.878;9.394;2024-03-08T12:26:34;11.50;99.90
10468;DHT22;5281;48.878;9.394;2024-03-08T12:29:18;11.60;99.90
10468;DHT22;5281;48.878;9.394;2024-03-08T12:31:51;11.80;99.90
10468;DHT22;5281;48.878;9.394;2024-03-08T12:34:18;11.90;99.90
10468;DHT22;5281;48.878;9.394;2024-03-08T12:36:46;12.00;99.90
10468;DHT22;5281;48.878;9.394;2024-03-08T12:39:16;12.20;99.90
10468;DHT22;5281;48.878;9.394;2024-03-08T12:41:47;12.20;99.90
10468;DHT22;5281;48.878;9.394;2024-03-08T12:44:14;12.20;99.90
10468;DHT22;5281;48.878;9.394;2024-03-08T12:46:41;12.30;99.90
10468;DHT22;5281;48.878;9.394;2024-03-08T12:49:11;12.40;99.90
10468;DHT22;5281;48.878;9.394;2024-03-08T12:51:38;12.40;99.90
10468;DHT22;5281;48.878;9.394;2024-03-08T12:54:05;12.20;99.90
10468;DHT22;5281;48.878;9.394;2024-03-08T12:56:34;12.10;99.90
10468;DHT22;5281;48.878;9.394;2024-03-08T12:59:03;12.10;99.90
10468;DHT22;5281;48.878;9.394;2024-03-08T13:01:30;12.00;99.90
10468;DHT22;5281;48.878;9.394;2024-03-08T13:03:57;11.90;99.90
10468;DHT22;5281;48.878;9.394;2024-03-08T13:06:25;12.10;99.90
10468;DHT22;5281;48.878;9.394;2024-03-08T13:08:52;12.30;99.90
10468;DHT22;5281;48.878;9.394;2024-03-08T13:11:20;12.50;99.90
10468;DHT22;5281;48.878;9.394;2024-03-08T13:13:48;12.40;99.90
10468;DHT22;5281;48.878;9.394;2024-03-08T13:16:16;12.20;99.90
10468;DHT22;5281;48.878;9.394;2024-03-08T13:18:46;12.10;99.90
10468;DHT22;5281;48.878;9.394;2024-03-08T13:21:14;12.30;99.90
10468;DHT22;5281;48.878;9.394;2024-03-08T13:23:45;12.40;99.90
10468;DHT22;5281;48.878;9.394;2024-03-08T13:26:15;12.60;99.90
10468;DHT22;5281;48.878;9.394;2024-03-08T13:28:42;12.70;99.90
10468;DHT22;5281;48.878;9.394;2024-03-08T13:31:08;12.80;99.90
10468;DHT22;5281;48.878;9.394;2024-03-08T13:33:36;12.80;99.90
10468;DHT22;5281;48.878;9.394;2024-03-08T13:36:05;12.80;99.90
10468;DHT22;5281;48.878;9.394;2024-03-08T13:38:40;12.70;99.90
10468;DHT22;5281;48.878;9.394;2024-03-08T13:41:09;12.90;99.90
10468;DHT22;5281;48.878;9.394;2024-03-08T13:43:36;12.90;99.90
10468;DHT22;5281;48.878;9.394;2024-03-08T13:46:03;13.00;99.90
10468;DHT22;5281;48.878;9.394;2024-03-08T13:48:31;13.10;99.90
10468;DHT22;5281;48.878;9.394;2024-03-08T13:50:58;13.10;99.90
10468;DHT22;5281;48.878;9.394;2024-03-08T13:53:25;13.20;99.90
10468;DHT22;5281;48.878;9.394;2024-03-08T13:55:52;13.20;99.90
10468;DHT22;5281;48.878;9.394;2024-03-08T13:58:20;13.30;99.90
10468;DHT22;5281;48.878;9.394;2024-03-08T14:00:47;13.40;99.90
10468;DHT22;5281;48.878;9.394;2024-03-08T14:03:14;13.50;99.90
10468;DHT22;5281;48.878;9.394;2024-03-08T14:05:41;13.50;99.90
10468;DHT22;5281;48.878;9.394;2024-03-08T14:08:08;13.60;99.90
10468;DHT22;5281;48.878;9.394;2024-03-08T14:10:35;13.60;99.90
10468;DHT22;5281;48.878;9.394;2024-03-08T14:13:03;13.70;99.90
10468;DHT22;5281;48.878;9.394;2024-03-08T14:15:31;13.50;99.90
10468;DHT22;5281;48.878;9.394;2024-03-08T14:17:58;13.60;99.90
10468;DHT22;5281;48.878;9.394;2024-03-08T14:20:25;13.60;99.90
10468;DHT22;5281;48.878;9.394;2024-03-08T14:22:52;13.70;99.90
10468;DHT22;5281;48.878;9.394;2024-03-08T14:25:18;13.90;99.90
10468;DHT22;5281;48.878;9.394;2024-03-08T14:27:46;13.80;99.90
10468;DHT22;5281;48.878;9.394;2024-03-08T14:30:13;13.90;99.90
10468;DHT22;5281;48.878;9.394;2024-03-08T14:32:44;13.90;99.90
10468;DHT22;5281;48.878;9.394;2024-03-08T14:35:14;13.90;99.90
10468;DHT22;5281;48.878;9.394;2024-03-08T14:37:41;14.00;99.90
10468;DHT22;5281;48.878;9.394;2024-03-08T14:40:09;14.10;99.90
10468;DHT22;5281;48.878;9.394;2024-03-08T14:42:36;14.20;99.90
10468;DHT22;5281;48.878;9.394;2024-03-08T14:45:03;14.20;99.90
10468;DHT22;5281;48.878;9.394;2024-03-08T14:47:31;14.20;99.90
10468;DHT22;5281;48.878;9.394;2024-03-08T14:50:00;14.20;99.90
10468;DHT22;5281;48.878;9.394;2024-03-08T14:52:27;14.20;99.90
10468;DHT22;5281;48.878;9.394;2024-03-08T14:54:54;14.10;99.90
10468;DHT22;5281;48.878;9.394;2024-03-08T14:57:21;14.00;99.90
10468;DHT22;5281;48.878;9.394;2024-03-08T14:59:48;13.70;99.90
10468;DHT22;5281;48.878;9.394;2024-03-08T15:02:15;13.60;99.90
10468;DHT22;5281;48.878;9.394;2024-03-08T15:04:46;13.40;99.90
10468;DHT22;5281;48.878;9.394;2024-03-08T15:07:19;13.40;99.90
10468;DHT22;5281;48.878;9.394;2024-03-08T15:09:46;13.60;99.90
10468;DHT22;5281;48.878;9.394;2024-03-08T15:12:12;13.60;99.90
10468;DHT22;5281;48.878;9.394;2024-03-08T15:14:40;13.60;99.90
10468;DHT22;5281;48.878;9.394;2024-03-08T15:17:09;13.80;99.90
10468;DHT22;5281;48.878;9.394;2024-03-08T15:19:43;13.90;99.90
10468;DHT22;5281;48.878;9.394;2024-03-08T15:22:10;13.80;99.90
10468;DHT22;5281;48.878;9.394;2024-03-08T15:24:38;13.80;99.90
10468;DHT22;5281;48.878;9.394;2024-03-08T15:27:05;13.70;99.90
10468;DHT22;5281;48.878;9.394;2024-03-08T15:29:31;13.60;99.90
10468;DHT22;5281;48.878;9.394;2024-03-08T15:31:59;13.50;99.90
10468;DHT22;5281;48.878;9.394;2024-03-08T15:34:26;13.50;99.90
10468;DHT22;5281;48.878;9.394;2024-03-08T15:36:52;13.60;99.90
10468;DHT22;5281;48.878;9.394;2024-03-08T15:39:19;13.70;99.90
10468;DHT22;5281;48.878;9.394;2024-03-08T15:41:49;13.60;99.90
10468;DHT22;5281;48.878;9.394;2024-03-08T15:44:16;13.60;99.90
10468;DHT22;5281;48.878;9.394;2024-03-08T15:46:43;13.50;99.90
10468;DHT22;5281;48.878;9.394;2024-03-08T15:49:11;13.50;99.90
10468;DHT22;5281;48.878;9.394;2024-03-08T15:51:38;13.40;99.90
10468;DHT22;5281;48.878;9.394;2024-03-08T15:54:06;13.20;99.90
10468;DHT22;5281;48.878;9.394;2024-03-08T15:56:33;13.00;99.90
10468;DHT22;5281;48.878;9.394;2024-03-08T15:59:01;12.90;99.90
10468;DHT22;5281;48.878;9.394;2024-03-08T16:01:31;12.80;99.90
10468;DHT22;5281;48.878;9.394;2024-03-08T16:03:59;12.80;99.90